createdAt,value
2023-03-07T00:00:35.380Z,77.23
2023-03-07T00:03:01.736Z,76.56
2023-03-07T00:05:28.126Z,75.49
2023-03-07T00:07:54.489Z,76.91
2023-03-07T00:10:20.876Z,76.41
2023-03-07T00:12:47.213Z,76.60
2023-03-07T00:15:13.530Z,76.87
2023-03-07T00:17:40.052Z,76.16
2023-03-07T00:20:07.556Z,76.32
2023-03-07T00:22:34.481Z,76.21
2023-03-07T00:25:00.795Z,76.60
2023-03-07T00:27:27.488Z,76.54
2023-03-07T00:29:53.849Z,76.25
2023-03-07T00:32:20.287Z,76.50
2023-03-07T00:34:46.621Z,76.68
2023-03-07T00:37:13.747Z,77.25
2023-03-07T00:39:40.056Z,76.75
2023-03-07T00:42:06.372Z,76.79
2023-03-07T00:44:32.791Z,77.00
2023-03-07T00:46:59.397Z,76.92
2023-03-07T00:49:26.283Z,77.10
2023-03-07T00:51:52.768Z,77.39
2023-03-07T00:54:19.098Z,77.38
2023-03-07T00:56:45.695Z,76.77
2023-03-07T00:59:12.392Z,76.63
2023-03-07T01:01:38.718Z,76.65
2023-03-07T01:04:05.154Z,77.55
2023-03-07T01:06:32.250Z,77.52
2023-03-07T01:08:59.815Z,76.96
2023-03-07T01:11:27.379Z,76.67
2023-03-07T01:13:57.442Z,77.48
2023-03-07T01:16:25.723Z,76.84
2023-03-07T01:18:53.932Z,77.05
2023-03-07T01:21:21.997Z,76.92
2023-03-07T01:23:48.654Z,77.50
2023-03-07T01:26:16.141Z,76.49
2023-03-07T01:28:42.454Z,77.05
2023-03-07T01:31:08.787Z,76.42
2023-03-07T01:33:35.100Z,76.32
2023-03-07T01:36:01.579Z,75.78
2023-03-07T01:38:28.875Z,75.87
2023-03-07T01:40:55.206Z,76.02
2023-03-07T01:43:26.141Z,76.70
2023-03-07T01:46:04.413Z,77.08
2023-03-07T01:48:30.791Z,77.34
2023-03-07T01:50:57.114Z,76.58
2023-03-07T01:53:23.549Z,76.25
2023-03-07T01:55:50.045Z,76.13
2023-03-07T01:58:16.406Z,76.60
2023-03-07T02:00:43.244Z,76.19
2023-03-07T02:03:19.745Z,77.36
2023-03-07T02:05:59.649Z,76.57
2023-03-07T02:08:27.570Z,76.74
2023-03-07T02:10:54.235Z,76.65
2023-03-07T02:13:20.631Z,77.28
2023-03-07T02:15:47.181Z,76.04
2023-03-07T02:18:15.956Z,77.14
2023-03-07T02:20:56.790Z,77.44
2023-03-07T02:23:32.720Z,76.24
2023-03-07T02:26:11.024Z,76.65
2023-03-07T02:28:39.799Z,76.58
2023-03-07T02:31:06.725Z,75.72
2023-03-07T02:33:33.210Z,76.17
2023-03-07T02:36:08.057Z,76.05
2023-03-07T02:38:37.907Z,76.15
2023-03-07T02:41:04.649Z,76.02
2023-03-07T02:43:30.935Z,76.47
2023-03-07T02:45:57.277Z,75.99
2023-03-07T02:48:23.595Z,76.78
2023-03-07T02:50:49.895Z,76.12
2023-03-07T02:53:16.437Z,77.11
2023-03-07T02:55:42.739Z,76.09
2023-03-07T02:58:09.041Z,77.22
2023-03-07T03:00:35.583Z,76.47
2023-03-07T03:03:01.936Z,76.58
2023-03-07T03:05:28.213Z,77.42
2023-03-07T03:07:54.624Z,77.24
2023-03-07T03:10:21.011Z,77.39
2023-03-07T03:12:47.627Z,77.13
2023-03-07T03:15:13.969Z,76.94
2023-03-07T03:17:40.437Z,77.63
2023-03-07T03:20:07.834Z,77.53
2023-03-07T03:22:34.296Z,77.27
2023-03-07T03:25:00.583Z,77.23
2023-03-07T03:27:26.894Z,77.00
2023-03-07T03:29:56.031Z,77.25
2023-03-07T03:32:22.403Z,76.68
2023-03-07T03:34:48.721Z,77.30
2023-03-07T03:37:15.081Z,77.32
2023-03-07T03:39:41.485Z,77.15
2023-03-07T03:42:08.154Z,77.64
2023-03-07T03:44:34.520Z,76.64
2023-03-07T03:47:00.864Z,77.53
2023-03-07T03:49:27.364Z,77.25
2023-03-07T03:51:53.748Z,78.56
2023-03-07T03:54:20.177Z,79.11
2023-03-07T03:56:46.447Z,79.57
2023-03-07T03:59:12.962Z,79.37
2023-03-07T04:01:39.360Z,79.80
2023-03-07T04:04:05.648Z,80.08
2023-03-07T04:06:33.340Z,80.48
2023-03-07T04:09:00.130Z,80.66
2023-03-07T04:11:26.478Z,80.77
2023-03-07T04:13:53.191Z,81.42
2023-03-07T04:16:19.839Z,81.23
2023-03-07T04:18:46.234Z,81.17
2023-03-07T04:21:12.955Z,81.11
2023-03-07T04:23:39.314Z,81.75
2023-03-07T04:26:06.649Z,81.96
2023-03-07T04:28:43.021Z,81.99
2023-03-07T04:31:10.057Z,81.42
2023-03-07T04:33:36.329Z,81.84
2023-03-07T04:36:02.687Z,82.11
2023-03-07T04:38:28.981Z,81.79
2023-03-07T04:40:55.305Z,82.14
2023-03-07T04:43:21.822Z,81.89
2023-03-07T04:45:48.148Z,83.53
2023-03-07T04:48:14.572Z,82.94
2023-03-07T04:50:40.882Z,82.95
2023-03-07T04:53:07.156Z,83.25
2023-03-07T04:55:33.671Z,82.82
2023-03-07T04:58:00.027Z,82.71
2023-03-07T05:00:26.462Z,82.47
2023-03-07T05:02:56.463Z,82.20
2023-03-07T05:05:22.796Z,81.65
2023-03-07T05:07:49.059Z,83.18
2023-03-07T05:10:15.621Z,82.11
2023-03-07T05:12:42.003Z,81.33
2023-03-07T05:15:08.537Z,81.70
2023-03-07T05:17:34.916Z,82.49
2023-03-07T05:20:01.216Z,81.74
2023-03-07T05:22:27.524Z,81.81
2023-03-07T05:24:53.874Z,81.95
2023-03-07T05:27:20.321Z,82.18
2023-03-07T05:29:46.703Z,82.50
2023-03-07T05:32:13.131Z,82.57
2023-03-07T05:34:39.515Z,81.92
2023-03-07T05:37:05.806Z,82.23
2023-03-07T05:39:32.107Z,82.40
2023-03-07T05:41:58.448Z,81.77
2023-03-07T05:44:24.798Z,82.29
2023-03-07T05:46:51.107Z,82.77
2023-03-07T05:49:17.551Z,82.21
2023-03-07T05:51:43.837Z,82.05
2023-03-07T05:54:10.144Z,81.74
2023-03-07T05:56:37.641Z,82.52
2023-03-07T05:59:07.500Z,82.37
2023-03-07T06:01:34.223Z,83.09
2023-03-07T06:04:00.563Z,82.02
2023-03-07T06:06:26.941Z,81.89
2023-03-07T06:08:53.291Z,81.13
2023-03-07T06:11:19.603Z,82.44
2023-03-07T06:13:45.885Z,81.79
2023-03-07T06:16:12.376Z,81.83
2023-03-07T06:18:38.751Z,81.20
2023-03-07T06:21:06.124Z,82.12
2023-03-07T06:23:34.030Z,80.88
2023-03-07T06:26:01.011Z,81.97
2023-03-07T06:28:27.707Z,81.88
2023-03-07T06:30:54.360Z,82.10
2023-03-07T06:33:21.218Z,82.77
2023-03-07T06:35:47.549Z,82.41
2023-03-07T06:38:15.040Z,81.59
2023-03-07T06:40:41.433Z,81.88
2023-03-07T06:43:07.792Z,82.11
2023-03-07T06:45:34.148Z,81.80
2023-03-07T06:48:00.468Z,81.72
2023-03-07T06:50:35.138Z,82.00
2023-03-07T06:53:02.092Z,80.72
2023-03-07T06:55:28.394Z,81.26
2023-03-07T06:57:55.036Z,81.06
2023-03-07T07:00:22.605Z,81.10
2023-03-07T07:02:49.856Z,81.40
2023-03-07T07:05:16.426Z,80.77
2023-03-07T07:07:42.747Z,80.50
2023-03-07T07:10:10.014Z,80.43
2023-03-07T07:12:36.374Z,81.01
2023-03-07T07:15:05.432Z,80.92
2023-03-07T07:17:32.138Z,80.29
2023-03-07T07:19:58.453Z,80.98
2023-03-07T07:22:24.833Z,80.44
2023-03-07T07:24:51.152Z,80.65
2023-03-07T07:27:17.482Z,80.90
2023-03-07T07:29:43.869Z,81.05
2023-03-07T07:32:10.386Z,81.13
2023-03-07T07:34:36.735Z,80.78
2023-03-07T07:37:03.152Z,80.56
2023-03-07T07:39:29.587Z,80.37
2023-03-07T07:41:55.978Z,80.12
2023-03-07T07:44:22.304Z,80.59
2023-03-07T07:46:48.605Z,80.83
2023-03-07T07:49:17.688Z,80.79
2023-03-07T07:51:44.910Z,80.48
2023-03-07T07:54:11.189Z,80.35
2023-03-07T07:56:37.537Z,80.80
2023-03-07T07:59:03.920Z,80.30
2023-03-07T08:01:30.220Z,79.80
2023-03-07T08:03:56.539Z,80.03
2023-03-07T08:06:24.581Z,78.80
2023-03-07T08:08:51.007Z,79.22
2023-03-07T08:11:17.556Z,78.52
2023-03-07T08:13:43.873Z,79.14
2023-03-07T08:16:10.266Z,79.24
2023-03-07T08:18:36.650Z,79.62
2023-03-07T08:21:03.017Z,79.56
2023-03-07T08:23:29.452Z,80.01
2023-03-07T08:25:55.776Z,79.48
2023-03-07T08:28:22.152Z,79.05
2023-03-07T08:30:48.525Z,79.60
2023-03-07T08:33:15.188Z,79.14
2023-03-07T08:35:41.533Z,79.46
2023-03-07T08:38:08.863Z,78.77
2023-03-07T08:40:35.173Z,79.59
2023-03-07T08:43:01.531Z,77.91
2023-03-07T08:45:27.872Z,78.07
2023-03-07T08:47:55.127Z,77.19
2023-03-07T08:50:22.972Z,78.05
2023-03-07T08:52:49.665Z,77.65
2023-03-07T08:55:16.810Z,78.14
2023-03-07T08:57:43.265Z,78.66
2023-03-07T09:00:10.308Z,77.38
2023-03-07T09:02:36.616Z,77.48
2023-03-07T09:05:03.152Z,76.89
2023-03-07T09:07:29.562Z,76.14
2023-03-07T09:09:55.865Z,75.52
2023-03-07T09:12:22.261Z,75.68
2023-03-07T09:14:48.539Z,74.68
2023-03-07T09:17:14.912Z,75.26
2023-03-07T09:19:42.399Z,74.91
2023-03-07T09:22:08.712Z,73.95
2023-03-07T09:24:35.109Z,73.58
2023-03-07T09:27:01.536Z,72.81
2023-03-07T09:29:27.820Z,73.49
2023-03-07T09:31:54.254Z,73.34
2023-03-07T09:34:20.648Z,73.16
2023-03-07T09:36:46.955Z,72.44
2023-03-07T09:39:14.662Z,72.49
2023-03-07T09:42:04.904Z,72.44
2023-03-07T09:44:40.916Z,71.83
2023-03-07T09:47:13.359Z,72.19
2023-03-07T09:49:44.469Z,72.55
2023-03-07T09:52:14.445Z,71.62
2023-03-07T09:54:43.810Z,71.36
2023-03-07T09:57:19.914Z,71.23
2023-03-07T09:59:47.296Z,71.59
2023-03-07T10:02:13.639Z,71.13
2023-03-07T10:04:46.899Z,71.61
2023-03-07T10:07:14.904Z,71.40
2023-03-07T10:09:41.717Z,71.67
2023-03-07T10:12:08.174Z,71.21
2023-03-07T10:14:40.477Z,70.63
2023-03-07T10:17:16.012Z,70.97
2023-03-07T10:19:48.911Z,70.43
2023-03-07T10:22:27.580Z,71.66
2023-03-07T10:25:01.194Z,71.02
2023-03-07T10:27:29.787Z,71.10
2023-03-07T10:29:57.536Z,69.68
2023-03-07T10:32:30.041Z,69.04
2023-03-07T10:35:17.133Z,69.01
2023-03-07T10:37:52.554Z,69.04
2023-03-07T10:40:34.196Z,69.25
2023-03-07T10:43:00.885Z,69.98
2023-03-07T10:45:32.099Z,69.33
2023-03-07T10:48:06.101Z,69.32
2023-03-07T10:50:38.205Z,69.11
2023-03-07T10:53:09.106Z,68.98
2023-03-07T10:55:37.216Z,67.76
2023-03-07T10:58:22.152Z,68.04
2023-03-07T11:01:02.451Z,68.07
2023-03-07T11:03:42.511Z,67.23
2023-03-07T11:06:26.188Z,67.07
2023-03-07T11:08:52.545Z,67.45
2023-03-07T11:11:31.983Z,67.32
2023-03-07T11:14:09.275Z,67.96
2023-03-07T11:16:54.216Z,67.47
2023-03-07T11:19:39.464Z,69.13
2023-03-07T11:22:17.993Z,68.34
2023-03-07T11:24:52.702Z,68.23
2023-03-07T11:27:23.513Z,69.82
2023-03-07T11:30:06.535Z,70.27
2023-03-07T11:32:33.904Z,70.78
2023-03-07T11:35:05.314Z,72.36
2023-03-07T11:37:47.929Z,73.22
2023-03-07T11:40:23.512Z,72.39
2023-03-07T11:42:52.645Z,73.93
2023-03-07T11:45:18.903Z,75.16
2023-03-07T11:48:04.039Z,75.50
2023-03-07T11:50:32.282Z,75.54
2023-03-07T11:53:01.630Z,77.22
2023-03-07T11:55:43.351Z,78.56
2023-03-07T11:58:24.981Z,77.94
2023-03-07T12:01:14.632Z,78.51
2023-03-07T12:03:51.927Z,77.62
2023-03-07T12:06:21.266Z,78.33
2023-03-07T12:08:47.541Z,77.94
2023-03-07T12:11:24.687Z,78.21
2023-03-07T12:13:54.488Z,77.41
2023-03-07T12:16:27.491Z,77.86
2023-03-07T12:19:03.877Z,78.00
2023-03-07T12:21:36.080Z,77.72
2023-03-07T12:24:11.954Z,78.44
2023-03-07T12:26:56.894Z,78.24
2023-03-07T12:29:23.167Z,79.61
2023-03-07T12:31:53.107Z,80.21
2023-03-07T12:34:28.396Z,80.60
2023-03-07T12:37:00.905Z,79.53
2023-03-07T12:39:27.221Z,79.58
2023-03-07T12:42:02.789Z,79.08
2023-03-07T12:44:29.108Z,78.60
2023-03-07T12:47:10.431Z,77.64
2023-03-07T12:49:49.663Z,77.57
2023-03-07T12:52:22.264Z,77.23
2023-03-07T12:55:11.838Z,77.16
2023-03-07T12:57:43.597Z,78.18
2023-03-07T13:00:13.001Z,76.08
2023-03-07T13:02:43.271Z,76.03
2023-03-07T13:05:17.776Z,76.42
2023-03-07T13:07:44.540Z,75.12
2023-03-07T13:10:14.690Z,75.16
2023-03-07T13:12:41.022Z,74.53
2023-03-07T13:15:27.722Z,73.41
2023-03-07T13:17:54.094Z,73.04
2023-03-07T13:20:29.475Z,73.05
2023-03-07T13:22:57.810Z,73.03
2023-03-07T13:25:27.772Z,72.27
2023-03-07T13:27:54.228Z,72.04
2023-03-07T13:30:27.003Z,72.07
2023-03-07T13:32:56.467Z,70.23
2023-03-07T13:35:22.766Z,70.63
2023-03-07T13:37:49.398Z,70.38
2023-03-07T13:40:34.617Z,70.07
2023-03-07T13:43:01.618Z,70.38
2023-03-07T13:45:40.090Z,70.38
2023-03-07T13:48:06.517Z,69.38
2023-03-07T13:50:35.560Z,69.18
2023-03-07T13:53:13.573Z,69.53
2023-03-07T13:55:41.465Z,69.54
2023-03-07T13:58:26.647Z,69.38
2023-03-07T14:00:59.142Z,69.40
2023-03-07T14:03:28.439Z,70.97
2023-03-07T14:05:56.372Z,72.34
2023-03-07T14:08:24.095Z,72.87
2023-03-07T14:10:50.792Z,72.94
2023-03-07T14:13:24.638Z,73.58
2023-03-07T14:15:57.136Z,74.36
2023-03-07T14:18:41.998Z,74.39
2023-03-07T14:21:25.983Z,74.55
2023-03-07T14:23:55.327Z,74.94
2023-03-07T14:26:26.086Z,75.59
2023-03-07T14:29:02.623Z,75.29
2023-03-07T14:31:30.798Z,75.39
2023-03-07T14:33:57.385Z,75.97
2023-03-07T14:36:25.277Z,76.65
2023-03-07T14:38:55.073Z,76.62
2023-03-07T14:41:37.759Z,76.00
2023-03-07T14:44:22.870Z,76.64
2023-03-07T14:46:59.788Z,76.50
2023-03-07T14:49:37.669Z,75.40
2023-03-07T14:52:04.827Z,76.50
2023-03-07T14:54:33.000Z,75.82
2023-03-07T14:57:00.520Z,75.40
2023-03-07T14:59:29.431Z,74.90
2023-03-07T15:01:56.778Z,75.25
2023-03-07T15:04:30.021Z,74.64
2023-03-07T15:07:01.154Z,74.63
2023-03-07T15:09:28.140Z,74.00
2023-03-07T15:11:54.414Z,73.36
2023-03-07T15:14:24.899Z,72.46
2023-03-07T15:16:53.052Z,71.17
2023-03-07T15:19:20.425Z,69.39
2023-03-07T15:21:48.276Z,70.22
2023-03-07T15:24:19.489Z,73.50
2023-03-07T15:26:50.435Z,72.95
2023-03-07T15:29:16.912Z,73.56
2023-03-07T15:31:55.404Z,74.82
2023-03-07T15:34:42.966Z,75.20
2023-03-07T15:37:26.578Z,74.90
2023-03-07T15:39:57.581Z,76.20
2023-03-07T15:42:24.008Z,75.43
2023-03-07T15:44:58.468Z,75.01
2023-03-07T15:47:25.289Z,74.46
2023-03-07T15:49:56.550Z,75.63
2023-03-07T15:52:28.243Z,74.91
2023-03-07T15:54:56.102Z,75.16
2023-03-07T15:57:24.736Z,74.63
2023-03-07T15:59:56.932Z,75.77
2023-03-07T16:02:32.378Z,75.96
2023-03-07T16:05:03.540Z,75.72
2023-03-07T16:07:29.908Z,75.25
2023-03-07T16:09:56.280Z,74.96
2023-03-07T16:12:24.104Z,73.95
2023-03-07T16:14:51.843Z,73.77
2023-03-07T16:17:26.974Z,73.72
2023-03-07T16:19:53.878Z,73.14
2023-03-07T16:22:20.316Z,73.43
2023-03-07T16:24:46.730Z,72.90
2023-03-07T16:27:23.027Z,72.80
2023-03-07T16:29:50.048Z,73.69
2023-03-07T16:32:17.888Z,73.31
2023-03-07T16:34:44.651Z,73.51
2023-03-07T16:37:11.410Z,73.65
2023-03-07T16:39:37.965Z,74.10
2023-03-07T16:42:04.376Z,74.40
2023-03-07T16:44:30.871Z,74.28
2023-03-07T16:47:08.539Z,73.45
2023-03-07T16:49:35.307Z,75.06
2023-03-07T16:52:06.175Z,74.96
2023-03-07T16:54:33.108Z,75.84
2023-03-07T16:57:01.227Z,75.11
2023-03-07T16:59:34.480Z,74.68
2023-03-07T17:02:01.193Z,75.31
2023-03-07T17:04:27.490Z,75.94
2023-03-07T17:07:04.171Z,75.87
2023-03-07T17:09:30.869Z,76.30
2023-03-07T17:11:57.249Z,76.15
2023-03-07T17:14:23.647Z,75.46
2023-03-07T17:16:50.281Z,75.91
2023-03-07T17:19:23.474Z,75.76
2023-03-07T17:21:49.825Z,75.68
2023-03-07T17:24:16.242Z,75.57
2023-03-07T17:26:43.439Z,75.59
2023-03-07T17:29:13.173Z,76.08
2023-03-07T17:31:42.057Z,75.44
2023-03-07T17:34:13.515Z,75.38
2023-03-07T17:36:39.865Z,74.99
2023-03-07T17:39:07.859Z,76.66
2023-03-07T17:41:35.667Z,76.02
2023-03-07T17:44:01.954Z,76.20
2023-03-07T17:46:28.288Z,76.52
2023-03-07T17:48:54.696Z,75.93
2023-03-07T17:51:21.165Z,76.34
2023-03-07T17:53:47.507Z,76.03
2023-03-07T17:56:14.529Z,76.16
2023-03-07T17:58:40.937Z,75.22
2023-03-07T18:01:08.392Z,74.94
2023-03-07T18:03:35.338Z,76.31
2023-03-07T18:06:01.666Z,75.70
2023-03-07T18:08:28.689Z,75.63
2023-03-07T18:10:55.049Z,75.25
2023-03-07T18:13:24.125Z,75.42
2023-03-07T18:15:50.469Z,75.89
2023-03-07T18:18:16.817Z,75.79
2023-03-07T18:20:43.136Z,75.36
2023-03-07T18:23:09.521Z,76.44
2023-03-07T18:25:35.846Z,75.32
2023-03-07T18:28:02.421Z,76.27
2023-03-07T18:30:29.193Z,76.19
2023-03-07T18:32:55.591Z,76.29
2023-03-07T18:35:23.362Z,75.39
2023-03-07T18:37:49.785Z,76.07
2023-03-07T18:40:16.509Z,76.33
2023-03-07T18:42:42.988Z,76.40
2023-03-07T18:45:09.759Z,76.30
2023-03-07T18:47:36.168Z,75.78
2023-03-07T18:50:02.555Z,75.94
2023-03-07T18:52:28.895Z,75.70
2023-03-07T18:54:55.245Z,75.13
2023-03-07T18:57:21.540Z,74.62
2023-03-07T18:59:47.904Z,74.95
2023-03-07T19:02:14.324Z,74.99
2023-03-07T19:04:40.702Z,75.19
2023-03-07T19:07:07.117Z,75.27
2023-03-07T19:09:33.452Z,76.08
2023-03-07T19:11:59.805Z,74.68
2023-03-07T19:14:26.406Z,75.11
2023-03-07T19:16:52.921Z,75.46
2023-03-07T19:19:19.353Z,74.51
2023-03-07T19:21:45.690Z,74.71
2023-03-07T19:24:12.059Z,75.72
2023-03-07T19:26:40.872Z,74.00
2023-03-07T19:29:09.575Z,74.45
2023-03-07T19:31:35.925Z,74.07
2023-03-07T19:34:03.262Z,73.15
2023-03-07T19:36:31.752Z,74.09
2023-03-07T19:39:01.196Z,74.98
2023-03-07T19:41:28.575Z,74.49
2023-03-07T19:43:55.626Z,74.44
2023-03-07T19:46:22.176Z,74.70
2023-03-07T19:48:49.053Z,74.92
2023-03-07T19:51:16.771Z,75.51
2023-03-07T19:53:44.276Z,75.53
2023-03-07T19:56:29.856Z,76.33
2023-03-07T19:58:56.888Z,75.41
2023-03-07T20:01:23.527Z,75.91
2023-03-07T20:03:50.968Z,76.49
2023-03-07T20:06:19.941Z,75.76
2023-03-07T20:08:50.755Z,76.29
2023-03-07T20:11:21.305Z,77.31
2023-03-07T20:13:48.292Z,76.44
2023-03-07T20:16:15.766Z,76.55
2023-03-07T20:18:42.305Z,76.10
2023-03-07T20:21:10.980Z,75.99
2023-03-07T20:23:37.335Z,76.52
2023-03-07T20:26:07.908Z,76.46
2023-03-07T20:28:34.337Z,75.97
2023-03-07T20:31:02.059Z,76.63
2023-03-07T20:33:29.128Z,76.71
2023-03-07T20:35:59.438Z,76.99
2023-03-07T20:38:26.025Z,77.69
2023-03-07T20:41:02.419Z,77.32
2023-03-07T20:43:29.867Z,77.05
2023-03-07T20:45:56.218Z,78.46
2023-03-07T20:48:23.233Z,77.90
2023-03-07T20:50:50.148Z,76.51
2023-03-07T20:53:16.577Z,77.24
2023-03-07T20:55:42.942Z,77.01
2023-03-07T20:58:09.473Z,76.18
2023-03-07T21:00:35.891Z,77.64
2023-03-07T21:03:06.001Z,76.75
2023-03-07T21:05:32.741Z,77.11
2023-03-07T21:07:59.164Z,77.26
2023-03-07T21:10:25.494Z,76.86
2023-03-07T21:12:53.310Z,77.46
2023-03-07T21:15:19.996Z,77.51
2023-03-07T21:17:46.472Z,77.09
2023-03-07T21:20:13.090Z,78.17
2023-03-07T21:22:40.531Z,78.22
2023-03-07T21:25:07.176Z,77.37
2023-03-07T21:27:33.472Z,77.90
2023-03-07T21:29:59.783Z,77.59
2023-03-07T21:32:26.153Z,77.81
2023-03-07T21:34:53.071Z,78.23
2023-03-07T21:37:20.715Z,77.84
2023-03-07T21:39:47.107Z,77.77
2023-03-07T21:42:13.525Z,77.57
2023-03-07T21:44:39.912Z,77.16
2023-03-07T21:47:06.294Z,76.63
2023-03-07T21:49:32.732Z,76.67
2023-03-07T21:51:59.086Z,77.10
2023-03-07T21:54:25.477Z,78.54
2023-03-07T21:56:51.820Z,77.90
2023-03-07T21:59:18.303Z,77.92
2023-03-07T22:01:44.765Z,77.89
2023-03-07T22:04:11.114Z,77.87
2023-03-07T22:06:37.572Z,78.78
2023-03-07T22:09:04.607Z,77.80
2023-03-07T22:11:30.896Z,76.85
2023-03-07T22:13:57.309Z,78.41
2023-03-07T22:16:23.693Z,78.39
2023-03-07T22:18:53.880Z,78.33
2023-03-07T22:21:21.155Z,78.49
2023-03-07T22:23:47.536Z,77.38
2023-03-07T22:26:13.883Z,78.28
2023-03-07T22:28:41.023Z,77.24
2023-03-07T22:31:08.944Z,78.40
2023-03-07T22:33:35.670Z,78.33
2023-03-07T22:36:04.082Z,77.16
2023-03-07T22:38:30.678Z,78.83
2023-03-07T22:43:26.880Z,77.68
2023-03-07T22:45:53.299Z,78.26
2023-03-07T22:48:19.722Z,78.12
2023-03-07T22:50:46.082Z,77.97
2023-03-07T22:53:13.170Z,78.46
2023-03-07T22:55:40.849Z,76.93
2023-03-07T22:58:07.155Z,77.17
2023-03-07T23:00:33.506Z,77.22
2023-03-07T23:02:59.823Z,77.67
2023-03-07T23:05:26.342Z,76.98
2023-03-07T23:07:52.696Z,76.60
2023-03-07T23:10:19.054Z,76.72
2023-03-07T23:12:48.722Z,77.10
2023-03-07T23:15:15.120Z,77.32
2023-03-07T23:17:41.487Z,77.71
2023-03-07T23:20:08.751Z,77.08
2023-03-07T23:22:35.080Z,76.87
2023-03-07T23:25:01.354Z,76.18
2023-03-07T23:27:27.728Z,76.51
2023-03-07T23:29:54.010Z,76.32
2023-03-07T23:32:20.332Z,75.99
2023-03-07T23:34:46.703Z,75.58
2023-03-07T23:37:12.986Z,77.16
2023-03-07T23:39:39.311Z,76.17
2023-03-07T23:42:05.667Z,76.56
2023-03-07T23:44:32.035Z,76.52
2023-03-07T23:46:58.323Z,76.45
2023-03-07T23:49:24.631Z,76.70
2023-03-07T23:51:50.938Z,76.87
2023-03-07T23:54:17.236Z,77.97
2023-03-07T23:56:43.513Z,77.12
2023-03-07T23:59:09.872Z,77.21
